Time;durP1;ratioP1;P1;durP2;ratioP2;P2;SDS_P1;SDS_P2;PMS_P1;PMS_P2;Temp;Humidity;BMP_temperature;BMP_pressure;BME280_temperature;BME280_humidity;BME280_pressure;Samples;Min_cycle;Max_cycle;Signal;HPM_P1;HPM_P2
2021/10/27 00:00:57;;;;;;;8.23;7.00;;;7.00;99.90;;;;;;6220131;23;20647;-90
2021/10/27 00:03:23;;;;;;;8.47;7.70;;;7.00;99.90;;;;;;6218375;23;20154;-91
2021/10/27 00:05:49;;;;;;;9.00;8.10;;;7.00;99.90;;;;;;6209695;23;20394;-91
2021/10/27 00:08:20;;;;;;;7.07;6.00;;;6.90;99.90;;;;;;6208238;23;20641;-91
2021/10/27 00:10:48;;;;;;;7.57;6.67;;;6.80;99.90;;;;;;6206560;23;20169;-89
2021/10/27 00:13:14;;;;;;;7.10;6.40;;;6.90;99.90;;;;;;6208977;23;20851;-90
2021/10/27 00:15:40;;;;;;;6.90;6.30;;;6.90;99.90;;;;;;6205848;23;20414;-90
2021/10/27 00:18:06;;;;;;;8.50;7.27;;;7.00;99.90;;;;;;6208293;23;20461;-89
2021/10/27 00:20:33;;;;;;;7.50;6.20;;;6.90;99.90;;;;;;6205021;23;20467;-89
2021/10/27 00:23:02;;;;;;;6.80;6.17;;;6.80;99.90;;;;;;6205858;23;20159;-90
2021/10/27 00:25:28;;;;;;;8.27;6.90;;;6.90;99.90;;;;;;6207679;23;20411;-90
2021/10/27 00:27:54;;;;;;;7.50;6.70;;;6.90;99.90;;;;;;6206450;23;20447;-90
2021/10/27 00:30:19;;;;;;;8.00;5.73;;;6.80;99.90;;;;;;6208748;23;20158;-89
2021/10/27 00:32:45;;;;;;;7.43;6.00;;;6.70;99.90;;;;;;6205921;23;20191;-90
2021/10/27 00:35:11;;;;;;;7.37;6.43;;;6.50;99.90;;;;;;6207835;23;20239;-91
2021/10/27 00:37:38;;;;;;;8.00;6.60;;;6.50;99.90;;;;;;6208799;23;20214;-91
2021/10/27 00:40:05;;;;;;;7.83;6.80;;;6.50;99.90;;;;;;6206064;23;20190;-90
2021/10/27 00:42:31;;;;;;;8.43;7.50;;;6.60;99.90;;;;;;6208825;23;20394;-90
2021/10/27 00:44:57;;;;;;;10.07;8.77;;;6.40;99.90;;;;;;6206378;23;20857;-91
2021/10/27 00:47:23;;;;;;;8.60;7.47;;;6.40;99.90;;;;;;6206787;23;20544;-91
2021/10/27 00:49:50;;;;;;;12.60;7.83;;;6.40;99.90;;;;;;6206364;23;20495;-90
2021/10/27 00:52:17;;;;;;;10.63;7.83;;;6.30;99.90;;;;;;6207930;23;20878;-91
2021/10/27 00:54:46;;;;;;;7.93;7.13;;;6.40;99.90;;;;;;6206766;23;20399;-91
2021/10/27 00:57:12;;;;;;;11.43;8.53;;;6.50;99.90;;;;;;6206251;23;20395;-90
2021/10/27 00:59:40;;;;;;;12.30;8.33;;;6.50;99.90;;;;;;6206927;23;20758;-91
2021/10/27 01:02:06;;;;;;;9.53;7.83;;;6.50;99.90;;;;;;6207061;23;20729;-90
2021/10/27 01:04:32;;;;;;;9.00;7.10;;;6.40;99.90;;;;;;6206676;23;20395;-92
2021/10/27 01:06:59;;;;;;;11.10;7.13;;;6.50;99.90;;;;;;6206109;23;20691;-91
2021/10/27 01:09:26;;;;;;;12.13;7.70;;;6.50;99.90;;;;;;6207038;23;20222;-90
2021/10/27 01:11:52;;;;;;;7.33;6.63;;;6.40;99.90;;;;;;6208728;23;20452;-91
2021/10/27 01:14:18;;;;;;;8.97;8.00;;;6.30;99.90;;;;;;6206448;23;20870;-91
2021/10/27 01:16:45;;;;;;;9.70;8.70;;;6.20;99.90;;;;;;6208878;23;20415;-91
2021/10/27 01:19:11;;;;;;;9.00;8.10;;;6.20;99.90;;;;;;6181907;23;20167;-91
2021/10/27 01:21:40;;;;;;;9.50;8.60;;;6.20;99.90;;;;;;6181683;23;20579;-90
2021/10/27 01:24:09;;;;;;;10.80;9.30;;;6.20;99.90;;;;;;6180916;23;20425;-91
2021/10/27 01:26:38;;;;;;;8.80;8.00;;;6.40;99.90;;;;;;6182336;23;20395;-91
2021/10/27 01:29:06;;;;;;;8.70;7.90;;;6.30;99.90;;;;;;6181499;23;20442;-91
2021/10/27 01:31:32;;;;;;;13.00;9.93;;;6.30;99.90;;;;;;6197657;23;20429;-89
2021/10/27 01:33:59;;;;;;;10.10;9.10;;;6.30;99.90;;;;;;6188027;23;20395;-90
2021/10/27 01:36:25;;;;;;;11.70;10.10;;;6.20;99.90;;;;;;6207992;23;20155;-91
2021/10/27 01:38:51;;;;;;;10.77;8.27;;;6.20;99.90;;;;;;6207810;23;20391;-90
2021/10/27 01:41:17;;;;;;;9.37;8.50;;;6.30;99.90;;;;;;6208980;23;20217;-90
2021/10/27 01:43:46;;;;;;;9.77;8.97;;;6.30;99.90;;;;;;6207098;23;20183;-90
2021/10/27 01:46:12;;;;;;;9.43;8.53;;;6.20;99.90;;;;;;6209996;23;20258;-90
2021/10/27 01:48:38;;;;;;;10.50;9.50;;;6.20;99.90;;;;;;6182967;23;20469;-90
2021/10/27 01:51:03;;;;;;;9.83;8.80;;;6.10;99.90;;;;;;6182971;23;20270;-90
2021/10/27 01:53:29;;;;;;;9.97;9.00;;;6.00;99.90;;;;;;6184279;23;20171;-91
2021/10/27 01:55:56;;;;;;;10.20;9.23;;;6.00;99.90;;;;;;6210186;23;20155;-92
2021/10/27 01:58:21;;;;;;;9.00;8.10;;;6.00;99.90;;;;;;6209115;23;20167;-90
2021/10/27 02:00:47;;;;;;;9.07;8.17;;;6.00;99.90;;;;;;6185203;23;20494;-91
2021/10/27 02:03:15;;;;;;;10.63;8.43;;;6.00;99.90;;;;;;6210785;23;20160;-91
2021/10/27 02:05:41;;;;;;;10.60;8.80;;;6.10;99.90;;;;;;6209998;23;20168;-91
2021/10/27 02:08:07;;;;;;;9.30;7.67;;;6.00;99.90;;;;;;6183018;23;20508;-90
2021/10/27 02:10:32;;;;;;;17.03;9.20;;;6.00;99.90;;;;;;6185091;23;20398;-90
2021/10/27 02:12:58;;;;;;;10.30;8.10;;;6.00;99.90;;;;;;6183518;23;20163;-91
2021/10/27 02:15:24;;;;;;;13.87;9.10;;;6.00;99.90;;;;;;6185705;23;20172;-91
2021/10/27 02:17:49;;;;;;;10.30;9.00;;;6.00;99.90;;;;;;6210880;23;20162;-91
2021/10/27 02:20:15;;;;;;;9.33;8.40;;;5.80;99.90;;;;;;6208790;23;20167;-91
2021/10/27 02:22:41;;;;;;;9.40;8.50;;;5.80;99.90;;;;;;6209496;23;20212;-92
2021/10/27 02:25:07;;;;;;;8.40;7.60;;;5.80;99.90;;;;;;6211072;23;20749;-91
2021/10/27 02:27:33;;;;;;;7.50;6.80;;;5.60;99.90;;;;;;6210245;23;20434;-90
2021/10/27 02:29:59;;;;;;;7.20;6.50;;;5.50;99.90;;;;;;6208242;23;20391;-90
2021/10/27 02:32:24;;;;;;;9.00;7.70;;;5.50;99.90;;;;;;6211604;23;20429;-90
2021/10/27 02:34:50;;;;;;;7.93;7.23;;;5.50;99.90;;;;;;6208854;23;20156;-90
2021/10/27 02:37:16;;;;;;;8.13;7.43;;;5.50;99.90;;;;;;6206753;23;20175;-91
2021/10/27 02:39:41;;;;;;;8.13;7.40;;;5.40;99.90;;;;;;6205380;23;20193;-91
2021/10/27 02:42:08;;;;;;;7.10;6.50;;;5.30;99.90;;;;;;6205926;23;20188;-91
2021/10/27 02:44:36;;;;;;;7.20;6.57;;;5.40;99.90;;;;;;6208700;23;20170;-91
2021/10/27 02:47:02;;;;;;;6.97;6.27;;;5.30;99.90;;;;;;6209596;23;20401;-91
2021/10/27 02:49:28;;;;;;;5.80;5.40;;;5.30;99.90;;;;;;6210538;23;20489;-91
2021/10/27 02:51:54;;;;;;;5.83;5.33;;;5.20;99.90;;;;;;6209750;23;20786;-91
2021/10/27 02:54:19;;;;;;;6.40;5.80;;;5.10;99.90;;;;;;6210136;23;20164;-91
2021/10/27 02:56:46;;;;;;;5.37;4.90;;;5.00;99.90;;;;;;6211008;23;20539;-91
2021/10/27 02:59:12;;;;;;;5.30;4.90;;;4.80;99.90;;;;;;6210958;23;20234;-90
2021/10/27 03:01:37;;;;;;;6.00;5.50;;;4.90;99.90;;;;;;6223616;23;20433;-90
2021/10/27 03:04:03;;;;;;;5.30;4.80;;;4.90;99.90;;;;;;6211481;23;20170;-90
2021/10/27 03:06:29;;;;;;;6.03;5.53;;;4.90;99.90;;;;;;6209360;23;20159;-90
2021/10/27 03:08:54;;;;;;;5.17;4.77;;;5.00;99.90;;;;;;6208370;23;20676;-90
2021/10/27 03:11:20;;;;;;;7.47;6.60;;;5.10;99.90;;;;;;6208700;23;20213;-90
2021/10/27 03:13:46;;;;;;;6.67;6.07;;;5.30;99.90;;;;;;6207788;23;20167;-90
2021/10/27 03:16:11;;;;;;;6.17;5.57;;;5.30;99.90;;;;;;6207314;23;20176;-91
2021/10/27 03:18:37;;;;;;;5.80;5.33;;;5.20;99.90;;;;;;6203845;23;20214;-91
2021/10/27 03:21:02;;;;;;;5.60;5.10;;;5.10;99.90;;;;;;6209394;23;20241;-89
2021/10/27 03:23:28;;;;;;;5.93;5.43;;;5.10;99.90;;;;;;6209671;23;20194;-90
2021/10/27 03:25:54;;;;;;;5.83;5.33;;;5.20;99.90;;;;;;6207501;23;20159;-91
2021/10/27 03:28:20;;;;;;;5.37;4.97;;;5.10;99.90;;;;;;6206652;23;20206;-91
2021/10/27 03:30:46;;;;;;;7.83;7.03;;;5.20;99.90;;;;;;6202443;23;20159;-90
2021/10/27 03:33:12;;;;;;;8.97;7.10;;;5.20;99.90;;;;;;6206345;23;20453;-90
2021/10/27 03:35:37;;;;;;;9.40;7.43;;;5.20;99.90;;;;;;6206444;23;20152;-91
2021/10/27 03:38:03;;;;;;;15.47;7.57;;;5.40;99.90;;;;;;6207440;23;20174;-90
2021/10/27 03:40:29;;;;;;;13.30;7.77;;;5.40;99.90;;;;;;6206990;23;20159;-90
2021/10/27 03:42:55;;;;;;;10.53;7.90;;;5.20;99.90;;;;;;6206243;23;20162;-92
2021/10/27 03:45:20;;;;;;;14.20;7.97;;;5.20;99.90;;;;;;6207304;23;20582;-92
2021/10/27 03:47:46;;;;;;;8.40;7.07;;;5.00;99.90;;;;;;6207605;23;20471;-91
2021/10/27 03:50:14;;;;;;;12.10;8.23;;;5.10;99.90;;;;;;6207461;23;20193;-91
2021/10/27 03:52:44;;;;;;;8.63;7.40;;;5.10;99.90;;;;;;6209128;23;20410;-90
2021/10/27 03:55:10;;;;;;;9.27;7.00;;;5.00;99.90;;;;;;6206120;23;20943;-90
2021/10/27 03:57:36;;;;;;;8.90;6.80;;;5.00;99.90;;;;;;6207935;23;20488;-90
2021/10/27 04:00:05;;;;;;;23.83;8.87;;;5.00;99.90;;;;;;6208076;23;20445;-90
2021/10/27 04:02:31;;;;;;;18.80;7.27;;;5.10;99.90;;;;;;6208249;23;20166;-89
2021/10/27 04:04:56;;;;;;;19.53;6.93;;;5.00;99.90;;;;;;6206703;23;20409;-87
2021/10/27 04:07:22;;;;;;;20.23;7.37;;;5.00;99.90;;;;;;6207807;23;20439;-88
2021/10/27 04:09:48;;;;;;;23.60;7.87;;;5.00;99.90;;;;;;6207382;23;20182;-88
2021/10/27 04:12:13;;;;;;;50.20;8.53;;;4.90;99.90;;;;;;6206213;23;20684;-88
2021/10/27 04:14:40;;;;;;;60.67;8.23;;;4.80;99.90;;;;;;6207782;23;20432;-88
2021/10/27 04:17:07;;;;;;;17.33;6.67;;;4.70;99.90;;;;;;6206782;23;20183;-88
2021/10/27 04:19:34;;;;;;;30.83;7.50;;;4.50;99.90;;;;;;6209771;23;20394;-88
2021/10/27 04:22:01;;;;;;;31.23;9.80;;;4.50;99.90;;;;;;6208205;23;20158;-87
2021/10/27 04:24:26;;;;;;;23.83;8.50;;;4.50;99.90;;;;;;6206269;23;20430;-89
2021/10/27 04:26:53;;;;;;;10.80;7.97;;;4.50;99.90;;;;;;6207964;23;20397;-86
2021/10/27 04:29:19;;;;;;;22.33;7.10;;;4.50;99.90;;;;;;6202622;23;20330;-87
2021/10/27 04:31:45;;;;;;;10.37;6.50;;;4.50;99.90;;;;;;6211636;23;20388;-85
2021/10/27 04:34:11;;;;;;;12.37;6.30;;;4.50;99.90;;;;;;6206676;23;20384;-84
2021/10/27 04:36:36;;;;;;;23.47;6.17;;;4.40;99.90;;;;;;6206369;23;20231;-86
2021/10/27 04:39:03;;;;;;;32.77;6.87;;;4.50;99.90;;;;;;6203327;23;20254;-84
2021/10/27 04:41:28;;;;;;;22.43;6.50;;;4.50;99.90;;;;;;6203816;23;20218;-85
2021/10/27 04:43:54;;;;;;;13.37;6.27;;;4.40;99.90;;;;;;6204260;23;20887;-85
2021/10/27 04:46:20;;;;;;;17.40;6.13;;;4.40;99.90;;;;;;6206067;23;20212;-86
2021/10/27 04:48:45;;;;;;;20.40;7.03;;;4.40;99.90;;;;;;6204691;23;20203;-86
2021/10/27 04:51:11;;;;;;;12.23;7.07;;;4.30;99.90;;;;;;6205521;23;20170;-85
2021/10/27 04:53:37;;;;;;;41.20;7.30;;;4.20;99.90;;;;;;6202537;23;20407;-86
2021/10/27 04:56:03;;;;;;;11.03;6.30;;;4.40;99.90;;;;;;6205215;23;20431;-87
2021/10/27 04:58:30;;;;;;;7.33;5.87;;;4.30;99.90;;;;;;6205662;23;20552;-85
2021/10/27 05:00:56;;;;;;;35.43;8.33;;;4.30;99.90;;;;;;6202389;23;20404;-85
2021/10/27 05:03:22;;;;;;;9.83;6.23;;;4.20;99.90;;;;;;6204625;23;20782;-87
2021/10/27 05:05:49;;;;;;;7.70;5.43;;;4.20;99.90;;;;;;6200148;23;20267;-87
2021/10/27 05:08:17;;;;;;;13.93;8.47;;;4.20;99.90;;;;;;6199519;23;21073;-86
2021/10/27 05:10:44;;;;;;;18.27;7.80;;;4.20;99.90;;;;;;6201421;23;20422;-86
2021/10/27 05:13:09;;;;;;;12.97;7.73;;;4.20;99.90;;;;;;6200222;23;20738;-86
2021/10/27 05:15:35;;;;;;;36.20;6.77;;;4.20;99.90;;;;;;6200370;23;20411;-88
2021/10/27 05:18:01;;;;;;;22.73;8.90;;;4.10;99.90;;;;;;6199983;23;20196;-87
2021/10/27 05:20:42;;;;;;;29.60;8.00;;;4.10;99.90;;;;;;6198762;23;20510;-87
2021/10/27 05:23:08;;;;;;;12.90;10.13;;;4.10;99.90;;;;;;6198966;23;20399;-85
2021/10/27 05:25:33;;;;;;;32.20;9.90;;;4.10;99.90;;;;;;6198648;23;20395;-85
2021/10/27 05:27:59;;;;;;;23.87;10.00;;;3.90;99.90;;;;;;6199891;23;20605;-86
2021/10/27 05:30:27;;;;;;;45.60;8.50;;;4.00;99.90;;;;;;6199614;23;20166;-87
2021/10/27 05:32:56;;;;;;;7.53;6.47;;;4.00;99.90;;;;;;6199922;23;20677;-87
2021/10/27 05:35:25;;;;;;;20.70;6.70;;;4.00;99.90;;;;;;6201983;23;20387;-86
2021/10/27 05:37:56;;;;;;;10.93;6.97;;;4.00;99.90;;;;;;6200023;23;20493;-88
2021/10/27 05:40:29;;;;;;;15.70;6.60;;;4.00;99.90;;;;;;6175067;23;20453;-87
2021/10/27 05:43:16;;;;;;;54.73;10.23;;;4.00;99.90;;;;;;6200848;23;20399;-87
2021/10/27 05:45:41;;;;;;;19.90;7.70;;;4.10;99.90;;;;;;6197687;23;20394;-87
2021/10/27 05:48:12;;;;;;;33.17;8.90;;;4.20;99.90;;;;;;6200165;23;20508;-86
2021/10/27 05:50:41;;;;;;;42.73;9.53;;;4.20;99.90;;;;;;6200370;23;20722;-86
2021/10/27 05:55:51;;;;;;;15.30;8.67;;;4.20;99.90;;;;;;6201756;23;20394;-86
2021/10/27 05:58:17;;;;;;;67.80;32.27;;;4.20;99.90;;;;;;6200038;23;20914;-84
2021/10/27 06:00:46;;;;;;;41.37;23.53;;;4.30;99.90;;;;;;6201425;23;20167;-86
2021/10/27 06:03:12;;;;;;;14.90;8.33;;;4.30;99.90;;;;;;6206496;23;20387;-85
2021/10/27 06:05:38;;;;;;;20.60;9.10;;;4.20;99.90;;;;;;6202340;23;20401;-86
2021/10/27 06:08:05;;;;;;;15.70;8.50;;;4.20;99.90;;;;;;6199648;23;20455;-86
2021/10/27 06:10:56;;;;;;;13.63;8.10;;;4.20;99.90;;;;;;6200033;23;20167;-88
2021/10/27 06:13:35;;;;;;;44.67;11.17;;;4.20;99.90;;;;;;6199886;23;20481;-87
2021/10/27 06:16:04;;;;;;;16.43;9.13;;;4.20;99.90;;;;;;6198824;23;20835;-88
2021/10/27 06:18:40;;;;;;;;;;;;;;;;;;;;;
2021/10/27 06:21:07;;;;;;;23.30;10.30;;;4.30;99.90;;;;;;6201600;23;20385;-87
2021/10/27 06:23:33;;;;;;;20.67;13.57;;;4.40;99.90;;;;;;6199965;23;20465;-86
2021/10/27 06:26:00;;;;;;;23.00;9.50;;;4.40;99.90;;;;;;6199941;23;20399;-87
2021/10/27 06:28:40;;;;;;;13.10;8.40;;;4.40;99.90;;;;;;6199298;23;20443;-85
2021/10/27 06:31:14;;;;;;;16.00;13.00;;;4.40;99.90;;;;;;6199385;23;20394;-87
2021/10/27 06:45:54;;;;;;;26.80;11.63;;;4.60;99.90;;;;;;6203826;23;20420;-86
2021/10/27 06:47:40;;;;;;;21.67;9.43;;;4.70;99.90;;;;;;6203485;23;20493;-87
2021/10/27 06:50:06;;;;;;;23.40;9.90;;;4.90;99.90;;;;;;6201246;23;20408;-86
2021/10/27 06:52:32;;;;;;;53.73;11.70;;;4.80;99.90;;;;;;6201591;23;20590;-86
2021/10/27 06:54:59;;;;;;;47.20;10.80;;;4.80;99.90;;;;;;6202104;23;21046;-87
2021/10/27 06:57:26;;;;;;;22.17;9.87;;;4.80;99.90;;;;;;6202694;23;20458;-86
2021/10/27 06:59:58;;;;;;;24.23;11.20;;;4.80;99.90;;;;;;6202649;23;20403;-87
2021/10/27 07:05:06;;;;;;;12.43;7.40;;;5.00;99.90;;;;;;6203875;23;20399;-88
2021/10/27 07:15:34;;;;;;;91.17;11.60;;;4.90;99.90;;;;;;6196643;23;20791;-89
2021/10/27 07:18:00;;;;;;;152.97;13.13;;;4.90;99.90;;;;;;6170679;23;21227;-89
2021/10/27 07:20:27;;;;;;;50.17;10.17;;;5.00;99.90;;;;;;6170902;23;20395;-89
2021/10/27 07:22:56;;;;;;;23.93;9.10;;;5.10;99.90;;;;;;6172403;23;20408;-89
2021/10/27 07:25:26;;;;;;;28.10;9.60;;;5.20;99.90;;;;;;6197101;23;20425;-90
2021/10/27 07:27:54;;;;;;;94.23;12.90;;;5.30;99.90;;;;;;6171233;23;20514;-87
2021/10/27 07:30:22;;;;;;;69.20;10.73;;;5.30;99.90;;;;;;6173279;23;20769;-89
2021/10/27 07:32:59;;;;;;;21.83;8.60;;;5.40;99.90;;;;;;6204270;23;20397;-89
2021/10/27 07:35:31;;;;;;;25.60;7.67;;;5.30;99.90;;;;;;6172335;23;20395;-89
2021/10/27 07:40:52;;;;;;;18.17;8.33;;;5.60;99.90;;;;;;6198620;23;20390;-89
2021/10/27 07:43:23;;;;;;;28.90;9.07;;;5.80;99.90;;;;;;6171794;23;20413;-88
2021/10/27 07:45:49;;;;;;;60.40;11.90;;;6.00;99.90;;;;;;6171610;23;20165;-89
2021/10/27 07:48:22;;;;;;;23.23;9.20;;;6.00;99.90;;;;;;6171171;23;20983;-88
2021/10/27 07:50:48;;;;;;;23.33;8.20;;;5.90;99.90;;;;;;6172112;23;20178;-88
2021/10/27 07:53:15;;;;;;;61.23;9.73;;;6.00;99.90;;;;;;6171371;23;20815;-88
2021/10/27 07:55:50;;;;;;;30.80;9.13;;;6.10;99.90;;;;;;6170317;23;20391;-88
2021/10/27 07:58:18;;;;;;;63.40;10.03;;;6.30;99.90;;;;;;6170022;23;20442;-88
2021/10/27 08:01:08;;;;;;;21.90;8.60;;;6.30;99.90;;;;;;6195609;23;20414;-88
2021/10/27 08:03:34;;;;;;;57.73;12.00;;;6.30;99.90;;;;;;6170632;23;20419;-87
2021/10/27 08:06:09;;;;;;;8.77;7.27;;;6.40;99.90;;;;;;6171029;23;20455;-89
2021/10/27 08:08:38;;;;;;;13.30;8.37;;;6.50;99.90;;;;;;6198568;23;20198;-88
2021/10/27 08:11:04;;;;;;;30.37;8.97;;;6.60;99.90;;;;;;6170904;23;20407;-87
2021/10/27 08:13:30;;;;;;;15.13;9.20;;;6.80;99.90;;;;;;6170088;23;20453;-88
2021/10/27 08:15:56;;;;;;;37.00;9.83;;;6.80;99.90;;;;;;6181537;23;20483;-88
2021/10/27 08:18:22;;;;;;;10.27;7.07;;;6.80;99.90;;;;;;6196542;23;20403;-88
2021/10/27 08:20:50;;;;;;;18.53;8.23;;;6.80;99.90;;;;;;6196613;23;20403;-88
2021/10/27 08:23:18;;;;;;;18.93;8.53;;;6.70;99.90;;;;;;6196628;23;20427;-89
2021/10/27 08:25:46;;;;;;;19.60;8.27;;;6.70;99.90;;;;;;6196691;23;20402;-89
2021/10/27 08:28:15;;;;;;;34.33;9.20;;;6.80;99.90;;;;;;6196124;23;20477;-90
2021/10/27 08:31:02;;;;;;;35.63;8.50;;;6.90;99.90;;;;;;6195786;23;20449;-88
2021/10/27 08:36:03;;;;;;;34.57;10.23;;;7.00;99.90;;;;;;6198965;23;20633;-89
2021/10/27 08:38:29;;;;;;;19.60;8.53;;;7.30;99.90;;;;;;6198139;23;20833;-89
2021/10/27 08:40:55;;;;;;;12.40;7.97;;;7.50;99.90;;;;;;6195527;23;20398;-90
2021/10/27 08:43:22;;;;;;;7.07;6.40;;;7.70;99.90;;;;;;6196287;23;20410;-88
2021/10/27 08:45:54;;;;;;;13.50;8.90;;;8.10;99.90;;;;;;6196363;23;20410;-89
2021/10/27 08:48:21;;;;;;;9.03;7.30;;;8.40;99.90;;;;;;6195789;23;20494;-89
2021/10/27 08:50:48;;;;;;;18.13;7.90;;;8.10;99.90;;;;;;6197972;23;20379;-89
2021/10/27 08:53:15;;;;;;;11.10;7.00;;;8.10;99.90;;;;;;6195612;23;20784;-88
2021/10/27 08:55:45;;;;;;;7.77;7.07;;;8.20;99.90;;;;;;6195575;23;20494;-89
2021/10/27 08:58:14;;;;;;;9.90;7.37;;;8.30;99.90;;;;;;6196057;23;20897;-88
2021/10/27 09:00:47;;;;;;;7.33;6.70;;;8.20;99.90;;;;;;6201916;23;20404;-89
2021/10/27 09:05:53;;;;;;;7.80;6.73;;;8.50;99.90;;;;;;6199406;23;20412;-88
2021/10/27 09:17:04;;;;;;;10.40;7.20;;;9.20;99.90;;;;;;6197786;23;21128;-88
2021/10/27 09:34:31;;;;;;;8.53;7.73;;;10.50;99.90;;;;;;6197771;23;20561;-90
2021/10/27 09:40:07;;;;;;;9.00;8.27;;;11.40;99.90;;;;;;6170747;23;20407;-88
2021/10/27 10:05:31;;;;;;;8.87;8.07;;;12.90;99.90;;;;;;6196360;23;20539;-89
2021/10/27 10:07:57;;;;;;;8.90;8.10;;;13.20;99.90;;;;;;6171561;23;20442;-89
2021/10/27 10:10:26;;;;;;;7.63;6.80;;;13.20;99.90;;;;;;6172718;23;20394;-91
2021/10/27 10:13:16;;;;;;;8.43;7.63;;;13.00;99.90;;;;;;6181008;23;20403;-89
2021/10/27 10:15:41;;;;;;;10.13;8.40;;;12.90;99.90;;;;;;6178201;23;20491;-89
2021/10/27 10:18:07;;;;;;;8.27;7.47;;;12.70;99.90;;;;;;6198279;23;20532;-90
2021/10/27 10:20:56;;;;;;;9.33;8.43;;;12.50;99.90;;;;;;6197241;23;20160;-90
2021/10/27 10:23:30;;;;;;;8.93;8.13;;;12.70;99.90;;;;;;6184778;23;20403;-89
2021/10/27 10:25:59;;;;;;;10.63;9.63;;;12.80;99.90;;;;;;6197934;23;20391;-89
2021/10/27 10:28:38;;;;;;;9.00;8.20;;;13.00;99.90;;;;;;6197081;23;20453;-89
2021/10/27 10:31:04;;;;;;;9.43;8.57;;;13.40;99.90;;;;;;6207448;23;20452;-90
2021/10/27 10:33:45;;;;;;;9.87;9.07;;;13.80;99.90;;;;;;6202236;23;20394;-89
2021/10/27 10:36:21;;;;;;;8.30;7.57;;;14.10;99.90;;;;;;6192089;23;20457;-88
2021/10/27 10:56:18;;;;;;;10.83;9.73;;;16.20;99.90;;;;;;6151278;23;20405;-91
2021/10/27 10:59:05;;;;;;;9.43;8.43;;;16.60;99.90;;;;;;6199586;23;20505;-90
2021/10/27 11:24:16;;;;;;;8.90;8.17;;;16.70;99.40;;;;;;6200704;23;20413;-93
2021/10/27 11:42:25;;;;;;;7.60;7.00;;;18.70;98.10;;;;;;6199141;23;20410;-89
2021/10/27 11:45:04;;;;;;;7.00;6.40;;;18.90;98.10;;;;;;6170760;23;20885;-89
2021/10/27 11:47:42;;;;;;;6.93;6.20;;;19.00;96.80;;;;;;6195700;23;20426;-90
2021/10/27 11:50:11;;;;;;;5.83;5.43;;;19.10;97.20;;;;;;6171003;23;20410;-90
2021/10/27 11:52:45;;;;;;;7.03;6.30;;;19.80;95.60;;;;;;6199057;23;20497;-91
2021/10/27 11:55:15;;;;;;;7.40;6.60;;;20.20;94.80;;;;;;6171625;23;20406;-91
2021/10/27 11:57:42;;;;;;;6.37;5.57;;;20.80;93.50;;;;;;6173705;23;20383;-92
2021/10/27 12:00:24;;;;;;;6.10;5.60;;;21.60;92.60;;;;;;6179605;23;20398;-89
2021/10/27 12:02:54;;;;;;;8.97;5.37;;;23.20;88.80;;;;;;6182488;23;20973;-90
2021/10/27 12:05:26;;;;;;;7.20;6.20;;;25.00;84.10;;;;;;6173211;23;20753;-89
2021/10/27 12:08:18;;;;;;;18.03;15.00;;;25.10;83.00;;;;;;6197300;23;21264;-90
2021/10/27 12:10:58;;;;;;;6.43;5.70;;;25.40;77.70;;;;;;6171772;23;20399;-90
2021/10/27 12:19:07;;;;;;;5.70;5.20;;;27.00;70.30;;;;;;6192665;23;20506;-90
2021/10/27 12:21:34;;;;;;;6.30;5.80;;;27.40;66.90;;;;;;6169191;23;20924;-90
2021/10/27 12:24:04;;;;;;;6.67;6.10;;;26.40;68.90;;;;;;6196360;23;20425;-90
2021/10/27 12:27:15;;;;;;;7.10;6.40;;;26.40;71.10;;;;;;6197081;23;20437;-89
2021/10/27 12:29:38;;;;;;;6.30;5.70;;;25.80;71.10;;;;;;6194847;23;20394;-87
2021/10/27 12:32:12;;;;;;;7.27;6.70;;;25.60;71.10;;;;;;6196598;23;20441;-87
2021/10/27 12:34:47;;;;;;;7.50;6.80;;;25.30;71.90;;;;;;6194873;23;20464;-88
2021/10/27 12:37:38;;;;;;;8.00;7.20;;;25.30;72.90;;;;;;6196079;23;20382;-87
2021/10/27 12:40:24;;;;;;;14.67;13.17;;;24.90;75.20;;;;;;6196605;23;20383;-87
2021/10/27 12:43:08;;;;;;;8.40;7.70;;;24.80;76.00;;;;;;6197107;23;20418;-88
2021/10/27 12:45:41;;;;;;;8.87;8.07;;;25.30;72.70;;;;;;6194509;23;20889;-88
2021/10/27 12:48:18;;;;;;;7.97;7.37;;;25.10;72.30;;;;;;6169898;23;20480;-88
2021/10/27 12:51:10;;;;;;;8.23;7.43;;;24.20;74.60;;;;;;6169699;23;20759;-88
2021/10/27 12:53:45;;;;;;;9.60;8.70;;;23.60;75.60;;;;;;6193362;23;20413;-86
2021/10/27 12:56:25;;;;;;;7.63;6.93;;;23.00;77.40;;;;;;6197017;23;20733;-86
2021/10/27 12:59:01;;;;;;;7.97;7.20;;;21.80;78.40;;;;;;6169779;23;20407;-88
2021/10/27 13:07:03;;;;;;;7.10;6.50;;;19.40;86.20;;;;;;6197008;23;20887;-88
2021/10/27 13:31:00;;;;;;;9.80;8.10;;;17.40;93.50;;;;;;6201704;23;20417;-87
2021/10/27 13:33:26;;;;;;;9.13;8.33;;;17.10;93.80;;;;;;6200256;23;20473;-87
2021/10/27 13:35:52;;;;;;;10.50;9.50;;;17.00;94.50;;;;;;6169602;23;20481;-85
2021/10/27 13:38:20;;;;;;;8.90;8.10;;;16.80;94.60;;;;;;6194340;23;20198;-85
2021/10/27 13:40:47;;;;;;;9.07;8.17;;;16.80;95.70;;;;;;6195453;23;20159;-84
2021/10/27 13:48:21;;;;;;;9.67;7.83;;;16.90;95.80;;;;;;6195713;23;20452;-85
2021/10/27 13:59:21;;;;;;;9.00;8.20;;;16.50;96.10;;;;;;6193367;23;20449;-85
2021/10/27 14:07:36;;;;;;;7.43;6.70;;;16.10;96.80;;;;;;6203046;23;21436;-85
2021/10/27 14:10:11;;;;;;;7.97;6.90;;;16.10;97.00;;;;;;6167058;23;20410;-85
2021/10/27 14:12:43;;;;;;;10.03;8.40;;;16.00;97.10;;;;;;6167213;23;20413;-85
2021/10/27 14:15:34;;;;;;;9.37;8.20;;;16.00;97.20;;;;;;6165437;23;20407;-84
2021/10/27 14:39:57;;;;;;;11.80;9.70;;;16.10;98.60;;;;;;6159598;23;20510;-87
2021/10/27 15:20:50;;;;;;;9.03;7.97;;;15.10;99.90;;;;;;6202516;23;20401;-87
2021/10/27 15:23:45;;;;;;;8.97;7.60;;;15.00;99.90;;;;;;6177765;23;20409;-87
2021/10/27 15:42:48;;;;;;;7.90;7.00;;;13.80;99.90;;;;;;6206290;23;20453;-92
2021/10/27 15:53:29;;;;;;;5.93;5.20;;;13.40;99.90;;;;;;6207449;23;20394;-91
2021/10/27 15:55:54;;;;;;;8.13;5.50;;;13.30;99.90;;;;;;6178334;23;20414;-90
2021/10/27 15:58:23;;;;;;;7.00;5.27;;;13.10;99.90;;;;;;6176680;23;20475;-90
2021/10/27 16:00:49;;;;;;;7.43;6.10;;;13.10;99.90;;;;;;6180432;23;20478;-91
2021/10/27 16:03:17;;;;;;;7.23;5.97;;;13.00;99.90;;;;;;6180135;23;20418;-87
2021/10/27 16:05:45;;;;;;;11.27;5.37;;;12.90;99.90;;;;;;6177370;23;20162;-89
2021/10/27 16:08:17;;;;;;;6.07;4.73;;;12.80;99.90;;;;;;6177685;23;20449;-88
2021/10/27 16:10:44;;;;;;;5.97;5.10;;;12.80;99.90;;;;;;6177154;23;20397;-92
2021/10/27 16:13:09;;;;;;;7.30;5.00;;;12.60;99.90;;;;;;6181637;23;20885;-91
2021/10/27 16:18:05;;;;;;;4.10;3.80;;;12.30;99.90;;;;;;6207172;23;20233;-91
2021/10/27 16:20:31;;;;;;;7.43;6.67;;;12.10;99.90;;;;;;6179938;23;20164;-91
2021/10/27 16:22:59;;;;;;;8.97;8.07;;;11.90;99.90;;;;;;6181304;23;20854;-93
2021/10/27 16:25:25;;;;;;;8.97;6.90;;;11.80;99.90;;;;;;6180815;23;20164;-91
2021/10/27 16:27:52;;;;;;;6.73;5.33;;;11.70;99.90;;;;;;6180654;23;20529;-92
2021/10/27 16:30:18;;;;;;;5.30;4.80;;;11.60;99.90;;;;;;6191894;23;20401;-90
2021/10/27 16:32:45;;;;;;;5.50;5.00;;;11.50;99.90;;;;;;6200615;23;20413;-89
2021/10/27 16:35:11;;;;;;;5.77;4.47;;;11.50;99.90;;;;;;6188697;23;20393;-91
2021/10/27 16:37:37;;;;;;;5.63;5.13;;;11.50;99.90;;;;;;6180303;23;20430;-90
2021/10/27 16:40:07;;;;;;;6.13;4.03;;;11.40;99.90;;;;;;6179758;23;20713;-91
2021/10/27 16:42:35;;;;;;;5.77;4.57;;;11.30;99.90;;;;;;6178981;23;20904;-91
2021/10/27 16:45:01;;;;;;;5.93;4.23;;;11.20;99.90;;;;;;6180814;23;20503;-91
2021/10/27 16:47:27;;;;;;;6.60;4.83;;;11.10;99.90;;;;;;6178994;23;20453;-91
2021/10/27 16:49:58;;;;;;;4.60;4.20;;;10.90;99.90;;;;;;6178806;23;20792;-91
2021/10/27 16:52:24;;;;;;;7.90;4.60;;;10.70;99.90;;;;;;6179320;23;20155;-91
2021/10/27 16:54:50;;;;;;;6.13;4.63;;;10.60;99.90;;;;;;6181407;23;20398;-91
2021/10/27 16:57:16;;;;;;;8.07;5.23;;;10.50;99.90;;;;;;6182746;23;20395;-93
2021/10/27 16:59:42;;;;;;;6.53;5.30;;;10.40;99.90;;;;;;6180959;23;20152;-93
2021/10/27 17:02:08;;;;;;;8.10;5.50;;;10.40;99.90;;;;;;6181858;23;20489;-91
2021/10/27 17:04:34;;;;;;;8.63;5.57;;;10.40;99.90;;;;;;6182166;23;20393;-91
2021/10/27 17:07:00;;;;;;;7.70;5.93;;;10.50;99.90;;;;;;6181076;23;20159;-93
2021/10/27 17:09:27;;;;;;;7.70;6.30;;;10.60;99.90;;;;;;6179022;23;20219;-91
2021/10/27 17:11:53;;;;;;;7.90;5.77;;;10.70;99.90;;;;;;6178849;23;20383;-91
2021/10/27 17:14:19;;;;;;;7.40;5.50;;;10.70;99.90;;;;;;6179472;23;20417;-89
2021/10/27 17:16:45;;;;;;;6.87;5.33;;;10.70;99.90;;;;;;6179477;23;20254;-91
2021/10/27 17:19:11;;;;;;;6.60;5.77;;;10.60;99.90;;;;;;6198702;23;20446;-92
2021/10/27 17:21:38;;;;;;;5.50;5.00;;;10.60;99.90;;;;;;6205238;23;20191;-90
2021/10/27 17:24:05;;;;;;;8.33;6.13;;;10.50;99.90;;;;;;6206725;23;20167;-91
2021/10/27 17:26:31;;;;;;;20.20;15.70;;;10.40;99.90;;;;;;6206724;23;20444;-91
2021/10/27 17:28:58;;;;;;;10.00;8.80;;;10.40;99.90;;;;;;6204063;23;20525;-92
2021/10/27 17:31:24;;;;;;;5.47;4.93;;;10.30;99.90;;;;;;6203848;23;20387;-90
2021/10/27 17:33:51;;;;;;;6.57;5.00;;;10.20;99.90;;;;;;6204543;23;20403;-90
2021/10/27 17:36:17;;;;;;;8.70;5.50;;;10.10;99.90;;;;;;6203384;23;20391;-90